createdAt,value
2023-05-12T00:01:38.339Z,9.57
2023-05-12T00:04:10.127Z,9.98
2023-05-12T00:06:41.583Z,10.23
2023-05-12T00:09:12.884Z,9.55
2023-05-12T00:11:48.612Z,9.80
2023-05-12T00:14:20.104Z,8.77
2023-05-12T00:16:52.573Z,9.80
2023-05-12T00:19:24.507Z,10.40
2023-05-12T00:21:55.938Z,10.10
2023-05-12T00:24:27.338Z,11.20
2023-05-12T00:27:01.492Z,10.95
2023-05-12T00:29:32.966Z,9.90
2023-05-12T00:32:04.537Z,11.00
2023-05-12T00:34:36.225Z,10.27
2023-05-12T00:37:07.754Z,11.93
2023-05-12T00:39:39.210Z,10.50
2023-05-12T00:42:14.691Z,10.55
2023-05-12T00:44:47.380Z,10.57
2023-05-12T00:47:20.374Z,10.43
2023-05-12T00:49:51.843Z,9.57
2023-05-12T00:52:23.565Z,10.07
2023-05-12T00:54:55.526Z,11.25
2023-05-12T00:57:30.953Z,9.85
2023-05-12T01:00:02.841Z,8.98
2023-05-12T01:02:34.368Z,10.65
2023-05-12T01:05:06.006Z,9.93
2023-05-12T01:07:37.746Z,10.60
2023-05-12T01:10:11.365Z,10.75
2023-05-12T01:12:45.747Z,10.60
2023-05-12T01:15:17.453Z,10.63
2023-05-12T01:17:52.879Z,9.13
2023-05-12T01:20:29.858Z,9.30
2023-05-12T01:23:02.304Z,9.30
2023-05-12T01:25:36.953Z,8.93
2023-05-12T01:28:11.407Z,8.40
2023-05-12T01:30:44.758Z,8.77
2023-05-12T01:33:15.117Z,8.82
2023-05-12T01:35:45.401Z,10.18
2023-05-12T01:38:17.695Z,7.55
2023-05-12T01:40:47.730Z,8.10
2023-05-12T01:43:22.827Z,8.75
2023-05-12T01:45:52.864Z,7.85
2023-05-12T01:48:23.253Z,6.38
2023-05-12T01:50:55.558Z,5.78
2023-05-12T01:53:27.884Z,5.30
2023-05-12T01:56:00.778Z,5.65
2023-05-12T01:58:36.576Z,6.15
2023-05-12T02:01:06.948Z,5.45
2023-05-12T02:03:39.973Z,5.50
2023-05-12T02:06:10.819Z,5.72
2023-05-12T02:08:40.931Z,5.00
2023-05-12T02:11:12.933Z,6.20
2023-05-12T02:13:47.408Z,6.53
2023-05-12T02:16:22.174Z,5.07
2023-05-12T02:18:52.894Z,5.35
2023-05-12T02:21:25.148Z,4.78
2023-05-12T02:23:59.146Z,5.03
2023-05-12T02:26:31.797Z,5.70
2023-05-12T02:29:07.084Z,5.97
2023-05-12T02:31:38.623Z,6.13
2023-05-12T02:34:10.137Z,5.22
2023-05-12T02:36:42.515Z,4.90
2023-05-12T02:39:15.234Z,5.43
2023-05-12T02:41:45.293Z,5.82
2023-05-12T02:44:18.832Z,5.57
2023-05-12T02:46:48.923Z,5.40
2023-05-12T02:49:19.054Z,5.45
2023-05-12T02:51:49.337Z,5.32
2023-05-12T02:54:19.440Z,4.20
2023-05-12T02:56:51.620Z,5.32
2023-05-12T02:59:24.968Z,5.40
2023-05-12T03:01:55.093Z,5.07
2023-05-12T03:04:25.305Z,4.45
2023-05-12T03:06:56.825Z,4.60
2023-05-12T03:09:28.397Z,4.20
2023-05-12T03:12:03.814Z,4.68
2023-05-12T03:14:38.873Z,5.07
2023-05-12T03:17:09.674Z,4.18
2023-05-12T03:19:40.615Z,4.28
2023-05-12T03:22:11.652Z,4.50
2023-05-12T03:27:15.940Z,3.95
2023-05-12T03:29:50.857Z,3.78
2023-05-12T03:32:21.681Z,4.10
2023-05-12T03:34:54.251Z,4.43
2023-05-12T03:37:26.531Z,5.05
2023-05-12T03:39:58.884Z,4.28
2023-05-12T03:42:28.983Z,4.88
2023-05-12T03:45:03.744Z,3.92
2023-05-12T03:47:36.415Z,3.72
2023-05-12T03:50:09.116Z,4.32
2023-05-12T03:52:41.565Z,5.53
2023-05-12T03:55:12.312Z,4.80
2023-05-12T03:57:42.726Z,5.00
2023-05-12T04:00:17.222Z,4.38
2023-05-12T04:02:47.434Z,4.20
2023-05-12T04:05:19.263Z,4.68
2023-05-12T04:07:50.126Z,4.65
2023-05-12T04:10:20.923Z,4.93
2023-05-12T04:15:25.321Z,4.30
2023-05-12T04:17:56.714Z,4.38
2023-05-12T04:20:28.401Z,5.50
2023-05-12T04:22:58.463Z,5.53
2023-05-12T04:25:29.297Z,4.05
2023-05-12T04:27:59.934Z,4.75
2023-05-12T04:30:32.669Z,5.65
2023-05-12T04:33:02.864Z,5.05
2023-05-12T04:35:35.361Z,5.20
2023-05-12T04:38:07.862Z,5.35
2023-05-12T04:40:38.017Z,4.97
2023-05-12T04:43:08.136Z,4.95
2023-05-12T04:45:44.366Z,4.72
2023-05-12T04:48:14.485Z,5.18
2023-05-12T04:50:44.620Z,5.20
2023-05-12T04:53:14.776Z,7.15
2023-05-12T04:55:46.360Z,6.45
2023-05-12T04:58:19.112Z,7.05
2023-05-12T05:00:51.855Z,5.80
2023-05-12T05:03:22.078Z,6.22
2023-05-12T05:05:54.373Z,6.70
2023-05-12T05:08:26.598Z,6.57
2023-05-12T05:10:59.036Z,6.25
2023-05-12T05:13:29.116Z,6.28
2023-05-12T05:16:04.656Z,6.95
2023-05-12T05:18:38.157Z,7.13
2023-05-12T05:21:11.173Z,6.65
2023-05-12T05:23:43.152Z,6.80
2023-05-12T05:26:15.181Z,5.38
2023-05-12T05:28:45.302Z,6.65
2023-05-12T05:31:20.638Z,6.32
2023-05-12T05:33:51.173Z,5.88
2023-05-12T05:36:21.674Z,6.57
2023-05-12T05:38:52.815Z,6.53
2023-05-12T05:41:23.424Z,6.72
2023-05-12T05:43:55.012Z,6.88
2023-05-12T05:46:30.115Z,6.15
2023-05-12T05:49:00.265Z,6.07
2023-05-12T05:51:30.449Z,7.30
2023-05-12T05:54:00.532Z,5.82
2023-05-12T05:56:30.669Z,5.82
2023-05-12T05:59:02.792Z,6.07
2023-05-12T06:01:35.938Z,6.65
2023-05-12T06:04:06.913Z,6.38
2023-05-12T06:09:12.872Z,5.15
2023-05-12T06:11:45.505Z,6.50
2023-05-12T06:14:15.613Z,6.15
2023-05-12T06:16:48.398Z,5.45
2023-05-12T06:19:21.308Z,5.63
2023-05-12T06:21:54.818Z,6.70
2023-05-12T06:24:27.349Z,6.10
2023-05-12T06:26:59.887Z,5.97
2023-05-12T06:29:31.305Z,5.35
2023-05-12T06:32:04.139Z,6.05
2023-05-12T06:34:35.234Z,5.88
2023-05-12T06:37:05.456Z,5.00
2023-05-12T06:39:36.065Z,5.25
2023-05-12T06:42:06.397Z,5.13
2023-05-12T06:44:36.500Z,5.45
2023-05-12T06:47:09.998Z,4.07
2023-05-12T06:49:41.865Z,5.15
2023-05-12T06:52:11.995Z,5.57
2023-05-12T06:54:44.637Z,5.18
2023-05-12T06:57:17.226Z,4.30
2023-05-12T06:59:49.977Z,5.25
2023-05-12T07:02:22.764Z,5.18
2023-05-12T07:04:57.791Z,8.07
2023-05-12T07:07:27.954Z,5.15
2023-05-12T07:09:58.388Z,5.57
2023-05-12T07:12:28.612Z,5.00
2023-05-12T07:14:58.752Z,18.38
2023-05-12T07:17:31.936Z,4.97
2023-05-12T07:20:05.059Z,8.05
2023-05-12T07:22:38.797Z,7.07
2023-05-12T07:25:10.735Z,5.40
2023-05-12T07:27:40.889Z,8.32
2023-05-12T07:30:12.797Z,13.18
2023-05-12T07:32:46.484Z,7.68
2023-05-12T07:35:16.689Z,8.30
2023-05-12T07:37:46.863Z,8.82
2023-05-12T07:40:18.329Z,10.55
2023-05-12T07:42:48.469Z,8.38
2023-05-12T07:45:23.438Z,7.63
2023-05-12T07:47:56.318Z,8.88
2023-05-12T07:50:27.026Z,6.78
2023-05-12T07:52:59.646Z,8.80
2023-05-12T07:55:29.946Z,7.68
2023-05-12T07:58:01.297Z,9.27
2023-05-12T08:00:31.802Z,9.93
2023-05-12T08:03:07.895Z,10.73
2023-05-12T08:05:38.223Z,10.15
2023-05-12T08:08:16.497Z,8.10
2023-05-12T08:10:49.157Z,8.70
2023-05-12T08:13:20.678Z,7.35
2023-05-12T08:15:52.055Z,9.07
2023-05-12T08:18:24.913Z,10.23
2023-05-12T08:20:57.506Z,10.50
2023-05-12T08:23:30.182Z,22.55
2023-05-12T08:26:00.306Z,8.65
2023-05-12T08:28:30.708Z,9.30
2023-05-12T08:31:03.362Z,9.82
2023-05-12T08:33:38.189Z,10.63
2023-05-12T08:36:08.992Z,10.55
2023-05-12T08:38:39.202Z,9.45
2023-05-12T08:41:18.445Z,10.85
2023-05-12T08:43:52.707Z,9.93
2023-05-12T08:46:24.000Z,8.77
2023-05-12T08:48:58.639Z,9.27
2023-05-12T08:51:31.385Z,9.48
2023-05-12T08:54:01.888Z,12.88
2023-05-12T08:59:08.372Z,10.50
2023-05-12T09:01:43.056Z,8.70
2023-05-12T09:04:16.398Z,11.50
2023-05-12T09:06:47.160Z,10.32
2023-05-12T09:09:20.104Z,11.98
2023-05-12T09:11:56.290Z,9.60
2023-05-12T09:14:28.451Z,8.57
2023-05-12T09:17:05.890Z,10.27
2023-05-12T09:19:39.808Z,10.63
2023-05-12T09:22:15.110Z,8.90
2023-05-12T09:24:47.743Z,12.13
2023-05-12T09:27:30.242Z,17.50
2023-05-12T09:30:03.072Z,10.60
2023-05-12T09:32:35.078Z,8.30
2023-05-12T09:35:11.318Z,7.07
2023-05-12T09:37:42.340Z,8.23
2023-05-12T09:40:14.521Z,6.10
2023-05-12T09:42:48.877Z,11.68
2023-05-12T09:45:19.857Z,5.10
2023-05-12T09:47:50.305Z,6.68
2023-05-12T09:50:23.531Z,6.82
2023-05-12T09:52:54.724Z,5.60
2023-05-12T09:55:26.652Z,5.63
2023-05-12T09:57:58.039Z,5.35
2023-05-12T10:00:43.382Z,5.55
2023-05-12T10:03:22.306Z,4.55
2023-05-12T10:05:57.257Z,6.32
2023-05-12T10:08:29.436Z,15.80
2023-05-12T10:11:00.360Z,3.42
2023-05-12T10:13:31.039Z,4.28
2023-05-12T10:16:02.136Z,2.75
2023-05-12T10:18:33.101Z,4.85
2023-05-12T10:21:06.698Z,2.58
2023-05-12T10:23:38.591Z,2.78
2023-05-12T10:26:09.815Z,4.13
2023-05-12T10:28:39.935Z,2.78
2023-05-12T10:31:10.935Z,3.67
2023-05-12T10:33:43.336Z,3.08
2023-05-12T10:36:27.932Z,2.50
2023-05-12T10:39:07.684Z,2.70
2023-05-12T10:41:40.946Z,3.13
2023-05-12T10:44:13.761Z,3.20
2023-05-12T10:46:46.420Z,3.00
2023-05-12T10:49:20.376Z,7.15
2023-05-12T10:51:53.536Z,2.72
2023-05-12T10:54:24.903Z,2.90
2023-05-12T10:56:56.362Z,3.25
2023-05-12T10:59:30.322Z,2.47
2023-05-12T11:02:04.973Z,2.50
2023-05-12T11:04:45.938Z,3.13
2023-05-12T11:07:20.494Z,2.85
2023-05-12T11:09:58.299Z,7.82
2023-05-12T11:12:33.208Z,2.10
2023-05-12T11:15:05.791Z,2.83
2023-05-12T11:17:35.966Z,5.28
2023-05-12T11:20:09.897Z,4.57
2023-05-12T11:22:46.749Z,2.47
2023-05-12T11:25:18.789Z,3.38
2023-05-12T11:27:52.913Z,2.75
2023-05-12T11:30:23.559Z,2.63
2023-05-12T11:35:34.467Z,2.60
2023-05-12T11:38:19.666Z,2.53
2023-05-12T11:40:51.694Z,3.00
2023-05-12T11:43:24.895Z,2.35
2023-05-12T11:45:56.635Z,6.30
2023-05-12T11:48:38.136Z,2.88
2023-05-12T11:51:08.330Z,7.13
2023-05-12T11:53:43.785Z,5.05
2023-05-12T11:56:22.357Z,2.70
2023-05-12T11:58:57.646Z,3.17
2023-05-12T12:01:28.301Z,4.40
2023-05-12T12:06:28.680Z,5.88
2023-05-12T12:09:02.915Z,2.20
2023-05-12T12:11:34.906Z,2.17
2023-05-12T12:14:05.350Z,2.97
2023-05-12T12:16:35.742Z,2.60
2023-05-12T12:19:06.291Z,1.77
2023-05-12T12:21:36.652Z,1.83
2023-05-12T12:24:09.795Z,1.98
2023-05-12T12:26:39.908Z,8.68
2023-05-12T12:29:10.422Z,2.30
2023-05-12T12:31:41.498Z,2.15
2023-05-12T12:34:12.906Z,2.90
2023-05-12T12:36:46.985Z,2.28
2023-05-12T12:39:20.314Z,2.63
2023-05-12T12:41:52.505Z,7.72
2023-05-12T12:44:22.887Z,2.40
2023-05-12T12:46:53.225Z,3.00
2023-05-12T12:49:23.625Z,2.35
2023-05-12T12:51:54.066Z,8.40
2023-05-12T12:54:27.635Z,2.50
2023-05-12T12:56:58.740Z,3.78
2023-05-12T12:59:29.757Z,6.28
2023-05-12T13:02:00.801Z,4.45
2023-05-12T13:04:31.574Z,2.63
2023-05-12T13:07:02.314Z,1.98
2023-05-12T13:09:35.428Z,6.15
2023-05-12T13:12:06.041Z,1.85
2023-05-12T13:17:06.625Z,2.00
2023-05-12T13:22:08.824Z,5.88
2023-05-12T13:24:41.811Z,2.15
2023-05-12T13:27:12.221Z,2.17
2023-05-12T13:29:42.841Z,1.73
2023-05-12T13:34:43.357Z,5.18
2023-05-12T13:37:13.697Z,2.47
2023-05-12T13:39:46.682Z,2.05
2023-05-12T13:42:17.321Z,2.05
2023-05-12T13:47:18.651Z,2.28
2023-05-12T13:49:49.007Z,7.65
2023-05-12T13:52:19.609Z,1.88
2023-05-12T13:57:22.649Z,2.03
2023-05-12T13:59:55.374Z,2.08
2023-05-12T14:02:25.900Z,1.85
2023-05-12T14:07:29.493Z,1.88
2023-05-12T14:10:00.536Z,2.38
2023-05-12T14:12:33.497Z,2.72
2023-05-12T14:15:21.310Z,1.95
2023-05-12T14:17:54.638Z,2.15
2023-05-12T14:20:25.069Z,2.47
2023-05-12T14:22:55.721Z,3.00
2023-05-12T14:28:00.292Z,2.33
2023-05-12T14:30:30.684Z,2.05
2023-05-12T14:33:01.161Z,2.47
2023-05-12T14:35:31.617Z,2.20
2023-05-12T14:38:02.019Z,4.32
2023-05-12T14:40:32.440Z,2.33
2023-05-12T14:43:06.279Z,2.55
2023-05-12T14:45:36.637Z,3.60
2023-05-12T14:48:07.207Z,2.83
2023-05-12T14:53:08.656Z,2.20
2023-05-12T14:55:40.487Z,5.20
2023-05-12T14:58:14.578Z,21.45
2023-05-12T15:00:44.936Z,2.83
2023-05-12T15:03:15.473Z,2.58
2023-05-12T15:11:05.845Z,3.22
2023-05-12T15:13:38.766Z,2.25
2023-05-12T15:16:09.430Z,2.17
2023-05-12T15:18:39.820Z,2.83
2023-05-12T15:21:10.334Z,2.50
2023-05-12T15:23:43.513Z,2.75
2023-05-12T15:26:26.870Z,2.15
2023-05-12T15:29:05.468Z,2.83
2023-05-12T15:31:36.131Z,3.28
2023-05-12T15:34:06.458Z,2.85
2023-05-12T15:36:36.857Z,2.47
2023-05-12T15:39:07.307Z,2.85
2023-05-12T15:41:37.665Z,2.70
2023-05-12T15:44:10.611Z,2.90
2023-05-12T15:46:41.044Z,2.83
2023-05-12T15:49:11.497Z,2.50
2023-05-12T15:51:41.964Z,2.30
2023-05-12T15:54:12.745Z,2.30
2023-05-12T15:56:43.615Z,2.80
2023-05-12T15:59:18.416Z,2.80
2023-05-12T16:01:49.004Z,2.88
2023-05-12T16:06:50.265Z,2.35
2023-05-12T16:09:20.636Z,5.07
2023-05-12T16:11:52.214Z,2.78
2023-05-12T16:14:25.723Z,2.63
2023-05-12T16:16:56.190Z,2.67
2023-05-12T16:19:26.769Z,2.85
2023-05-12T16:21:58.631Z,3.58
2023-05-12T16:24:29.827Z,3.28
2023-05-12T16:27:01.200Z,3.83
2023-05-12T16:29:34.102Z,2.65
2023-05-12T16:32:04.581Z,2.53
2023-05-12T16:37:05.053Z,2.72
2023-05-12T16:39:36.106Z,2.88
2023-05-12T16:42:06.604Z,2.63
2023-05-12T16:44:39.532Z,2.97
2023-05-12T16:47:09.975Z,2.83
2023-05-12T16:49:40.407Z,2.13
2023-05-12T16:52:12.308Z,2.90
2023-05-12T16:54:42.815Z,3.72
2023-05-12T16:57:13.533Z,4.30
2023-05-12T16:59:48.405Z,3.10
2023-05-12T17:02:19.117Z,2.65
2023-05-12T17:07:19.999Z,3.47
2023-05-12T17:09:50.321Z,3.35
2023-05-12T17:12:21.026Z,2.65
2023-05-12T17:15:06.170Z,2.08
2023-05-12T17:17:37.755Z,2.78
2023-05-12T17:20:09.405Z,3.40
2023-05-12T17:22:44.436Z,2.67
2023-05-12T17:25:15.463Z,2.08
2023-05-12T17:27:46.586Z,2.97
2023-05-12T17:30:19.965Z,2.67
2023-05-12T17:32:50.794Z,3.35
2023-05-12T17:35:21.433Z,2.85
2023-05-12T17:37:55.692Z,3.15
2023-05-12T17:40:26.684Z,2.97
2023-05-12T17:42:57.070Z,3.28
2023-05-12T17:45:30.520Z,2.90
2023-05-12T17:48:00.922Z,3.58
2023-05-12T17:50:31.279Z,3.70
2023-05-12T17:53:01.629Z,3.28
2023-05-12T17:55:32.145Z,4.78
2023-05-12T17:58:02.758Z,3.97
2023-05-12T18:00:35.706Z,6.57
2023-05-12T18:03:06.198Z,2.70
2023-05-12T18:05:36.795Z,2.30
2023-05-12T18:10:37.565Z,2.25
2023-05-12T18:13:07.941Z,2.20
2023-05-12T18:15:40.920Z,1.60
2023-05-12T18:18:11.747Z,8.30
2023-05-12T18:20:42.493Z,2.25
2023-05-12T18:25:43.145Z,2.60
2023-05-12T18:28:13.522Z,2.75
2023-05-12T18:30:46.514Z,2.17
2023-05-12T18:33:17.187Z,2.08
2023-05-12T18:38:17.704Z,2.00
2023-05-12T18:40:48.021Z,2.28
2023-05-12T18:43:18.427Z,1.83
2023-05-12T18:45:51.821Z,2.20
2023-05-12T18:48:22.613Z,2.28
2023-05-12T18:53:23.024Z,2.50
2023-05-12T18:55:53.411Z,2.88
2023-05-12T18:58:23.797Z,6.65
2023-05-12T19:00:56.740Z,3.17
2023-05-12T19:03:27.341Z,2.63
2023-05-12T19:05:57.658Z,3.05
2023-05-12T19:08:28.039Z,1.95
2023-05-12T19:10:58.485Z,2.58
2023-05-12T19:13:28.875Z,2.38
2023-05-12T19:16:01.789Z,2.83
2023-05-12T19:18:32.814Z,2.50
2023-05-12T19:21:03.133Z,2.83
2023-05-12T19:23:34.127Z,2.88
2023-05-12T19:26:04.607Z,2.97
2023-05-12T19:28:34.995Z,2.30
2023-05-12T19:31:08.326Z,2.22
2023-05-12T19:33:38.713Z,1.95
2023-05-12T19:36:09.494Z,3.08
2023-05-12T19:41:14.173Z,2.80
2023-05-12T19:43:44.570Z,3.20
2023-05-12T19:46:18.098Z,3.15
2023-05-12T19:48:48.731Z,2.55
2023-05-12T19:51:19.093Z,2.97
2023-05-12T19:53:49.507Z,2.33
2023-05-12T19:56:19.903Z,2.80
2023-05-12T19:58:50.757Z,3.17
2023-05-12T20:01:23.786Z,2.95
2023-05-12T20:03:54.295Z,2.53
2023-05-12T20:06:25.210Z,3.10
2023-05-12T20:08:55.622Z,3.38
2023-05-12T20:11:25.948Z,3.00
2023-05-12T20:13:56.289Z,3.05
2023-05-12T20:16:29.339Z,2.97
2023-05-12T20:19:02.509Z,3.05
2023-05-12T20:21:34.216Z,2.50
2023-05-12T20:24:04.754Z,4.18
2023-05-12T20:26:35.059Z,3.92
2023-05-12T20:29:05.613Z,4.38
2023-05-12T20:31:38.694Z,3.35
2023-05-12T20:34:09.202Z,2.97
2023-05-12T20:36:39.519Z,3.20
2023-05-12T20:39:10.478Z,2.97
2023-05-12T20:41:40.948Z,3.13
2023-05-12T20:44:11.342Z,2.88
2023-05-12T20:46:44.362Z,2.88
2023-05-12T20:49:14.803Z,2.88
2023-05-12T20:51:45.155Z,3.47
2023-05-12T20:54:15.833Z,3.03
2023-05-12T20:56:46.143Z,3.22
2023-05-12T20:59:16.654Z,3.50
2023-05-12T21:01:49.738Z,3.35
2023-05-12T21:04:20.258Z,2.90
2023-05-12T21:06:52.636Z,3.13
2023-05-12T21:09:23.907Z,3.28
2023-05-12T21:11:54.267Z,3.30
2023-05-12T21:14:24.699Z,3.40
2023-05-12T21:16:57.725Z,2.90
2023-05-12T21:19:28.282Z,3.22
2023-05-12T21:21:58.976Z,3.17
2023-05-12T21:24:29.792Z,7.93
2023-05-12T21:29:30.281Z,3.10
2023-05-12T21:32:03.432Z,3.58
2023-05-12T21:34:36.132Z,3.17
2023-05-12T21:37:06.556Z,3.60
2023-05-12T21:39:36.978Z,2.72
2023-05-12T21:42:07.528Z,3.15
2023-05-12T21:44:37.927Z,3.72
2023-05-12T21:47:11.003Z,3.63
2023-05-12T21:49:42.221Z,3.47
2023-05-12T21:52:12.528Z,4.15
2023-05-12T21:54:43.154Z,3.22
2023-05-12T21:57:13.566Z,3.35
2023-05-12T21:59:43.932Z,3.63
2023-05-12T22:02:16.979Z,3.30
2023-05-12T22:04:47.332Z,4.03
2023-05-12T22:07:17.705Z,4.50
2023-05-12T22:09:48.249Z,3.80
2023-05-12T22:12:19.321Z,3.78
2023-05-12T22:14:49.639Z,4.00
2023-05-12T22:17:22.662Z,4.45
2023-05-12T22:19:52.804Z,10.80
2023-05-12T22:22:25.060Z,4.63
2023-05-12T22:24:57.575Z,4.28
2023-05-12T22:27:30.884Z,4.32
2023-05-12T22:30:01.257Z,3.65
2023-05-12T22:32:36.755Z,3.85
2023-05-12T22:35:09.255Z,3.70
2023-05-12T22:37:39.759Z,4.32
2023-05-12T22:40:11.840Z,3.65
2023-05-12T22:42:42.664Z,3.45
2023-05-12T22:47:47.523Z,5.18
2023-05-12T22:50:19.315Z,4.05
2023-05-12T22:52:53.239Z,4.45
2023-05-12T22:55:26.453Z,4.63
2023-05-12T22:58:00.049Z,4.43
2023-05-12T23:00:30.807Z,4.82
2023-05-12T23:05:34.455Z,4.78
2023-05-12T23:08:05.975Z,4.80
2023-05-12T23:10:38.517Z,5.00
2023-05-12T23:13:08.893Z,5.10
2023-05-12T23:15:39.308Z,5.82
2023-05-12T23:18:10.841Z,5.10
2023-05-12T23:20:46.023Z,5.22
2023-05-12T23:23:16.452Z,5.30
2023-05-12T23:25:49.688Z,6.15
2023-05-12T23:28:20.144Z,5.45
2023-05-12T23:30:50.278Z,7.75
2023-05-12T23:33:20.556Z,6.75
2023-05-12T23:35:53.364Z,6.25
2023-05-12T23:38:24.052Z,6.65
2023-05-12T23:40:57.706Z,5.70
2023-05-12T23:43:29.885Z,5.45
2023-05-12T23:46:01.495Z,7.47
2023-05-12T23:48:32.576Z,5.35
2023-05-12T23:51:05.599Z,6.07
2023-05-12T23:53:36.117Z,6.05
2023-05-12T23:56:06.488Z,6.20
2023-05-12T23:58:36.857Z,6.28
